Tiempo atmosférico en la estación meteorológica de Estaca De Bares, A Coruña (80 m.)



Fecha
DESCASC
Temp. máxima en grados centígrados (hora)
DESCASC
Temp. mínima en grados centígrados (hora)
DESCASC
Temp. media en grados centígrados
DESCASC
Racha de viento máxima en m/sg (hora)
DESCASC
Velocidad máxima media en intervalos de 10 minutos(hora)
DESCASC
Precipitaciones diarias en mm
DESCASC
Precipitaciones de 00:00 a 06:00 en mm
DESCASC
Precipitaciones de 06:00 a 12:00 en mm
DESCASC
Precipitaciones de 12:00 a 18:00 en mm
DESCASC
Precipitaciones de 18:00 a 24:00 en mm
DESCASC
31-03-2020 10.6 (23:50) 4.8 (07:30) 7.7 27.22 (00:10) 21.39 (00:20) -- -- -- -- --
30-03-2020 10.3 (03:10) 6 (17:40) 8.2 29.17 (04:40) 23.61 (04:50) -- -- -- -- --
29-03-2020 12.7 (16:50) 9.4 (00:00) 11 27.5 (21:40) 22.22 (23:59) -- -- -- -- --
28-03-2020 14.2 (16:10) 9.3 (00:00) 11.8 14.72 (00:40) 11.39 (01:00) -- -- -- -- --
27-03-2020 12.8 (14:50) 9.4 (00:00) 11.1 17.5 (20:30) 12.78 (23:40) -- -- -- -- --
26-03-2020 12.1 (14:50) 9.2 (00:00) 10.7 14.72 (23:40) 11.94 (22:10) -- -- -- -- --
25-03-2020 13.8 (15:40) 10.1 (00:00) 12 10.56 (00:20) 7.78 (00:20) -- -- -- -- --
24-03-2020 14.6 (13:50) 11.4 (00:00) 13 14.72 (04:20) 12.78 (04:30) -- -- -- -- --
23-03-2020 11.9 (23:10) 9.6 (00:00) 10.8 14.17 (01:10) 11.94 (01:10) -- -- -- -- --
22-03-2020 14.8 (14:30) 11.6 (00:40) 13.2 13.06 (22:40) 11.39 (22:40) -- -- -- -- --
21-03-2020 14.7 (15:50) 11.1 (00:00) 12.9 8.89 (07:40) 6.67 (04:20) -- -- -- -- --
20-03-2020 13.3 (14:20) 10.9 (00:00) 12.1 10.83 (06:50) 8.61 (06:20) -- -- -- -- --
19-03-2020 12.6 (15:10) 10.8 (00:00) 11.7 10 (00:50) 8.33 (21:20) -- -- -- -- --
18-03-2020 13.6 (15:30) 10.9 (00:00) 12.3 12.22 (18:50) 9.44 (18:20) -- -- -- -- --
17-03-2020 13 (16:40) 10.4 (00:00) 11.7 17.22 (04:10) 13.89 (03:40) -- 0 -- -- --
16-03-2020 11.8 (16:10) 7.3 (00:00) 9.6 19.17 (02:40) 12.22 (23:59) 0 0 0 0 0
15-03-2020 12.9 (10:10) 7.1 (00:00) 10 19.17 (10:40) 13.61 (13:20) 0 0 0 0 0
14-03-2020 15.8 (16:00) 9.3 (00:00) 12.6 5.56 (03:30) 4.72 (10:20) 0 0 0 0 0
13-03-2020 12.4 (14:40) 10.2 (04:40) 11.3 13.61 (08:30) 10.56 (08:30) 0 0 0 0 0
12-03-2020 13 (02:40) 9.9 (00:00) 11.4 10.83 (13:40) 7.78 (13:40) 0 0 0 0 0
11-03-2020 17 (12:30) 12.4 (00:00) 14.7 16.67 (16:20) 15 (16:10) 0 0 0 0 0
10-03-2020 16.7 (15:30) 10.7 (00:00) 13.7 18.06 (05:00) 15 (05:10) 0 0 0 0 0
09-03-2020 14.7 (15:10) 10.4 (00:00) 12.5 15 (17:00) 13.33 (00:20) 0 0 0 0 0
08-03-2020 14.4 (13:00) 10.8 (00:00) 12.6 24.72 (08:20) 19.17 (14:00) 0 0 0 0 0
07-03-2020 15.1 (13:30) 10.9 (00:00) 13 16.39 (23:59) 13.33 (16:50) 0 0 0 0 0
06-03-2020 12.1 (23:59) 6.5 (00:00) 9.3 31.67 (01:00) 25 (05:30) 34.8 21.4 13.4 0 0
05-03-2020 15.8 (00:10) 8.3 (00:00) 12.1 31.67 (06:40) 25.28 (06:50) 14.6 7.8 3.4 1.2 2.2
04-03-2020 17.5 (13:40) 13.3 (00:00) 15.4 23.33 (22:00) 19.17 (23:40) 1.8 1.6 0.2 0 0
03-03-2020 14.8 (10:10) 9.3 (00:00) 12.1 35.83 (08:40) 30 (09:00) 5.4 2 1.4 0 2
02-03-2020 11.7 (16:10) 6.6 (00:00) 9.1 33.06 (09:10) 27.78 (09:10) 40 17.2 20.4 2 0.4

Gráficas

Temp. máximas Temp. mínimas Temp. medias Precipitaciones Rachas de viento máximas Velocidades máximas media en intervalos de 10 minutos

Datos horarios

Fecha y hora oficial Temperatura (ºC) Velocidad del viento (km/h) Dirección del viento Racha (km/h) Dirección de racha Precipitación (mm) Presión (hPa) Tendencia (hPa) Humedad (%)
2020-03-31 23:00:00 10.2 56 Este 86 Este -- 999.1 0.5 85
2020-03-31 22:00:00 9.8 52 Este 86 Este -- 998.7 0.4 89
2020-03-31 21:00:00 9.7 59 Este 86 Este -- 998.4 0 87
2020-03-31 20:00:00 10.1 55 Este 80 Este -- 998.6 0.4 79
2020-03-31 19:00:00 9.8 64 Este 87 Este -- 998.3 -0.3 78
2020-03-31 18:00:00 9.5 61 Este 92 Este -- 998.4 -0.3 76
2020-03-31 17:00:00 9.1 64 Este 86 Este -- 998.2 -0.8 76
2020-03-31 16:00:00 9 63 Este 91 Este -- 998.6 -1.4 79
2020-03-31 15:00:00 8.8 62 Este 86 Este -- 998.7 -1.2 82
2020-03-31 14:00:00 8.9 55 Este 81 Este -- 999 -1.3 73
2020-03-31 13:00:00 8.4 48 Este 73 Este -- 1000 -0.6 75
2020-03-31 12:00:00 7.4 50 Este 73 Este -- 999.9 -0.3 80
2020-03-31 11:00:00 7.9 45 Este 69 Este -- 1000.3 -0.3 75
2020-03-31 10:00:00 6.8 37 Este 78 Este -- 1000.6 -0.9 84
2020-03-31 09:00:00 8.1 56 Este 84 Este -- 1000.2 -1.5 70
2020-03-31 08:00:00 7.5 55 Este 91 Este -- 1000.6 -1.8 73
2020-03-31 07:00:00 6.7 50 Este 84 Nordeste -- 1001.5 -1.8 72
2020-03-31 06:00:00 8.2 59 Este 91 Nordeste -- 1001.7 -2.8 65
2020-03-31 05:00:00 8.2 53 Este 85 Este -- 1002.4 -2.8 68
2020-03-31 04:00:00 8 58 Este 89 Este -- 1003.3 -3 69
2020-03-31 03:00:00 8.3 57 Este 77 Este -- 1004.5 -2.2 69
2020-03-31 02:00:00 8.3 58 Este 82 Este -- 1005.2 -2 63
2020-03-31 01:00:00 8.3 59 Este 98 Este -- 1006.3 -0.9 60
2020-03-31 00:00:00 8.5 66 Este 85 Este -- 1006.7 -0.8 58
2020-03-30 23:00:00 8.3 69 Nordeste 87 Nordeste -- 1007.2 -0.2 60
2020-03-30 22:00:00 8.2 70 Nordeste 92 Este -- 1007.2 -1 61
2020-03-30 21:00:00 8 62 Nordeste 92 Este -- 1007.5 -1.2 62
2020-03-30 20:00:00 8 70 Este 89 Nordeste -- 1007.4 -0.9 66
2020-03-30 19:00:00 7.2 48 Este 77 Este -- 1008.2 -1.1 75
2020-03-30 18:00:00 6.8 49 Este 98 Este -- 1008.7 -1 76
2020-03-30 17:00:00 7 78 Nordeste 96 Nordeste -- 1008.3 -1.8 75
2020-03-30 16:00:00 8.2 62 Este 87 Este -- 1009.3 -1.4 64
2020-03-30 15:00:00 7.7 67 Este 86 Este -- 1009.7 -0.9 67
2020-03-30 14:00:00 8.1 68 Este 94 Este -- 1010.1 -0.5 65
2020-03-30 13:00:00 8.1 71 Este 99 Nordeste -- 1010.7 0.5 57
2020-03-30 12:00:00 9.1 78 Este 102 Nordeste -- 1010.6 -0.1 64
2020-03-30 11:00:00 8.1 77 Este 98 Este -- 1010.6 0.5 65
2020-03-30 10:00:00 8.6 75 Este 98 Este -- 1010.2 0 68
2020-03-30 09:00:00 8.7 68 Este 91 Nordeste -- 1010.7 0.9 59
2020-03-30 08:00:00 8.8 72 Este 92 Este -- 1010.1 -0.2 60
2020-03-30 07:00:00 9.1 70 Este 95 Nordeste -- 1010.2 -0.7 61
2020-03-30 06:00:00 9.1 78 Este 102 Este -- 1009.8 -1.2 64
2020-03-30 05:00:00 8.7 78 Este 105 Este -- 1010.3 -1.2 72
2020-03-30 04:00:00 10.1 73 Este 97 Este -- 1010.9 -0.9 65
2020-03-30 03:00:00 10.2 72 Este 95 Este -- 1011 -0.8 56
2020-03-30 02:00:00 10.1 74 Este 100 Este -- 1011.5 -0.4 64
2020-03-30 01:00:00 9.7 74 Este 97 Este -- 1011.8 0.5 65
2020-03-30 00:00:00 9.5 80 Este 96 Este -- 1011.8 0.7 72
2020-03-29 23:00:00 9.9 75 Este 95 Este -- 1011.9 1 73
2020-03-29 22:00:00 9.8 78 Este 99 Este -- 1011.3 0.7 76
2020-03-29 21:00:00 9.9 75 Este 94 Este -- 1011.1 1.1 82
2020-03-29 20:00:00 10.3 69 Este 91 Este -- 1010.9 0.2 86
2020-03-29 19:00:00 10.9 63 Este 82 Este -- 1010.6 -0.1 85
2020-03-29 18:00:00 11.6 67 Este 81 Este -- 1010 -1 83
2020-03-29 17:00:00 12.6 48 Este 63 Este -- 1010.7 -0.5 77
2020-03-29 16:00:00 12.3 41 Este 57 Este -- 1010.7 -0.4 67
2020-03-29 15:00:00 12.4 43 Este 57 Este -- 1011 -0.4 72
2020-03-29 14:00:00 12.3 38 Este 56 Este -- 1011.2 0.1 71
2020-03-29 13:00:00 12.1 43 Este 56 Este -- 1011.1 0.4 72
2020-03-29 12:00:00 12 33 Este 46 Este -- 1011.4 0.8 76
2020-03-29 11:00:00 11.2 38 Este 51 Este -- 1011.1 0.9 77
2020-03-29 10:00:00 11 39 Este 49 Este -- 1010.7 0.9 78
2020-03-29 09:00:00 10.9 36 Este 46 Este -- 1010.6 0.8 78
2020-03-29 08:00:00 10.6 37 Este 48 Este -- 1010.2 0.3 79
2020-03-29 07:00:00 10.6 39 Este 49 Este -- 1009.8 -0.5 79
2020-03-29 06:00:00 10.6 39 Este 48 Este -- 1009.8 -0.7 82
2020-03-29 05:00:00 10.8 38 Este 48 Este -- 1009.9 -0.9 81
2020-03-29 03:00:00 11.1 36 Este 47 Este -- 1010.5 -0.4 80
2020-03-29 01:00:00 11.3 37 Este 46 Este -- 1010.8 0.2 81
2020-03-29 00:00:00 11.4 33 Este 44 Este -- 1011.1 0.9 78
2020-03-28 23:00:00 11.6 32 Este 43 Este -- 1010.9 1.1 75
2020-03-28 22:00:00 11.8 31 Este 48 Este -- 1010.6 1.3 80
2020-03-28 21:00:00 11.8 31 Este 43 Este -- 1010.2 1.5 78
2020-03-28 20:00:00 11.8 30 Este 41 Este -- 1009.8 1.4 74
2020-03-28 19:00:00 12.2 30 Este 41 Este -- 1009.3 0.9 75
2020-03-28 18:00:00 12.3 30 Este 41 Este -- 1008.7 0.2 76
2020-03-28 17:00:00 12.8 29 Este 42 Este -- 1008.4 -0.4 75
2020-03-28 16:00:00 13.8 28 Este 38 Este -- 1008.4 -0.5 72
2020-03-28 15:00:00 12.4 30 Este 36 Sudeste -- 1008.5 -0.4 78
2020-03-28 14:00:00 11.9 30 Este 39 Sudeste -- 1008.8 0 76
2020-03-28 13:00:00 12.4 32 Este 38 Sudeste -- 1008.9 0.6 72
2020-03-28 12:00:00 12.1 30 Sudeste 38 Sudeste -- 1008.9 1.3 73
2020-03-28 11:00:00 11.6 28 Sudeste 37 Sudeste -- 1008.8 1.7 72
2020-03-28 10:00:00 11.2 30 Sudeste 40 Sudeste -- 1008.3 1.9 72
2020-03-28 09:00:00 10.6 29 Sudeste 38 Sudeste -- 1007.6 1.6 75
2020-03-28 08:00:00 9.6 28 Sudeste 38 Sudeste -- 1007.1 1.5 78
2020-03-28 07:00:00 9.5 30 Sudeste 40 Sudeste -- 1006.4 1 78
2020-03-28 06:00:00 9.6 30 Sudeste 40 Sudeste -- 1006 0.5 78
2020-03-28 05:00:00 9.9 32 Sudeste 41 Sudeste -- 1005.6 0.1 77
2020-03-28 04:00:00 10 30 Sudeste 41 Este -- 1005.4 0.2 78
2020-03-28 03:00:00 10.6 33 Sudeste 48 Este -- 1005.5 0.1 78
2020-03-28 02:00:00 11 39 Este 48 Sudeste -- 1005.5 0.6 75
2020-03-28 01:00:00 11.2 41 Este 53 Sudeste -- 1005.2 0.6 73
2020-03-28 00:00:00 11.4 45 Este 62 Este -- 1005.4 1.2 71
2020-03-27 23:00:00 11.2 43 Este 59 Este -- 1004.9 1.2 68
2020-03-27 22:00:00 11.2 40 Este 61 Sudeste -- 1004.6 1.4 71
2020-03-27 21:00:00 11.2 43 Este 63 Este -- 1004.2 1.5 67
2020-03-27 20:00:00 11.2 43 Este 58 Este -- 1003.7 0.9 64
2020-03-27 19:00:00 11.5 43 Este 58 Este -- 1003.2 0.4 64
2020-03-27 18:00:00 11.8 43 Este 58 Este -- 1002.7 -0.6 63
2020-03-27 17:00:00 12.3 37 Este 55 Este -- 1002.8 -0.7 59
2020-03-27 16:00:00 11.9 42 Este 56 Este -- 1002.8 -1 58
2020-03-27 15:00:00 11.5 37 Este 53 Este -- 1003.3 -0.6 58
2020-03-27 14:00:00 11.3 32 Este 51 Este -- 1003.5 -0.7 57
2020-03-27 13:00:00 11.9 34 Este 48 Este -- 1003.8 -0.1 56
2020-03-27 12:00:00 11.5 33 Este 46 Este -- 1003.9 0.3 59
2020-03-27 11:00:00 10.8 28 Este 52 Este -- 1004.2 1 63
2020-03-27 10:00:00 10.5 38 Este 53 Este -- 1003.9 1 54
2020-03-27 09:00:00 10.3 36 Este 55 Este -- 1003.6 0.7 57
2020-03-27 08:00:00 10 39 Este 57 Este -- 1003.2 0.5 58
2020-03-27 07:00:00 9.9 38 Este 54 Este -- 1002.9 0 56
2020-03-27 06:00:00 9.6 39 Este 55 Este -- 1002.9 -0.3 54
2020-03-27 05:00:00 9.4 44 Este 54 Este -- 1002.7 -0.7 59
2020-03-27 04:00:00 9.5 39 Este 57 Este -- 1002.9 -0.6 56
2020-03-27 03:00:00 9.6 32 Este 55 Este -- 1003.2 -0.5 59
2020-03-27 02:00:00 9.6 36 Este 54 Este -- 1003.4 -0.6 61
2020-03-27 01:00:00 9.7 41 Este 56 Este -- 1003.5 -0.4 61
2020-03-27 00:00:00 10.3 40 Este 53 Este -- 1003.7 -0.8 63
2020-03-26 23:00:00 10.4 39 Este 53 Nordeste -- 1004 -0.2 67
2020-03-26 22:00:00 11 36 Nordeste 50 Nordeste -- 1003.9 -0.1 71
2020-03-26 21:00:00 10.9 31 Nordeste 41 Nordeste -- 1004.5 0.7 65
2020-03-26 20:00:00 10.8 28 Nordeste 42 Nordeste -- 1004.2 0.1 62
2020-03-26 19:00:00 10.8 31 Nordeste 42 Este -- 1004 -0.5 63
2020-03-26 18:00:00 11.2 34 Este 44 Este -- 1003.8 -1.1 62
2020-03-26 17:00:00 11.6 27 Este 38 Este -- 1004.1 -1.4 60
2020-03-26 16:00:00 11.7 24 Este 37 Este -- 1004.5 -1.3 59
2020-03-26 15:00:00 11.7 24 Este 37 Este -- 1004.9 -0.9 58
2020-03-26 14:00:00 11.6 27 Este 39 Este -- 1005.5 -0.3 61
2020-03-26 13:00:00 11.6 23 Este 33 Este -- 1005.8 0 62
2020-03-26 12:00:00 11.6 24 Este 32 Este -- 1005.8 0.1 64
2020-03-26 11:00:00 11 23 Este 32 Este -- 1005.8 0.1 66
2020-03-26 10:00:00 10.7 12 Este 19 Este -- 1005.8 0.3 73
2020-03-26 09:00:00 10.4 12 Este 17 Este -- 1005.7 0.4 71
2020-03-26 08:00:00 9.3 14 Este 19 Este -- 1005.7 0.3 77
2020-03-26 07:00:00 9.6 12 Este 22 Este -- 1005.5 -0.1 78
2020-03-26 06:00:00 9.5 9 Este 13 Este -- 1005.3 -0.3 82
2020-03-26 05:00:00 9.9 8 Nordeste 12 Este -- 1005.4 -0.4 87
2020-03-26 04:00:00 9.9 9 Este 19 Este -- 1005.6 -0.7 85
2020-03-26 03:00:00 9.7 14 Este 17 Este -- 1005.6 -0.9 87
2020-03-26 02:00:00 9.9 14 Este 17 Este -- 1005.8 -0.7 87
2020-03-26 01:00:00 10.4 14 Sudeste 19 Este -- 1006.3 -0.3 86
2020-03-26 00:00:00 10.3 12 Sudeste 17 Sudeste -- 1006.5 0.3 88
2020-03-25 23:00:00 10.4 12 Sudeste 19 Sudeste -- 1006.5 0.5 88
2020-03-25 22:00:00 10.6 14 Sudeste 21 Sudeste -- 1006.6 0.6 89
2020-03-25 21:00:00 11 17 Sudeste 23 Este -- 1006.2 0.4 87
2020-03-25 20:00:00 11.4 19 Este 24 Sudeste -- 1006 0.2 86
2020-03-25 19:00:00 12 17 Este 26 Este -- 1006 0.2 85
2020-03-25 18:00:00 12.6 18 Este 28 Este -- 1005.8 -0.2 85
2020-03-25 17:00:00 13 18 Este 28 Este -- 1005.8 -0.3 87
2020-03-25 16:00:00 13.1 20 Este 27 Este -- 1005.8 -0.6 89
2020-03-25 15:00:00 13.2 17 Este 29 Este -- 1006 -0.2 88
2020-03-25 14:00:00 13.1 20 Este 28 Este -- 1006.1 0 86
2020-03-25 13:00:00 13.3 19 Este 24 Este -- 1006.4 0.5 84
2020-03-25 12:00:00 12.8 14 Este 29 Sudeste -- 1006.2 0.6 86
2020-03-25 11:00:00 11.2 22 Este 27 Este -- 1006.1 0.8 92
2020-03-25 10:00:00 10.9 17 Sudeste 29 Este -- 1005.9 0.8 94
2020-03-25 09:00:00 11.2 21 Sudeste 27 Sudeste -- 1005.6 0.8 93
2020-03-25 08:00:00 10.8 17 Sudeste 20 Sudeste -- 1005.3 0.5 92
2020-03-25 07:00:00 10.6 14 Sudeste 17 Sudeste -- 1005.1 0.3 92
2020-03-25 06:00:00 10.8 13 Sudeste 22 Sudeste -- 1004.8 -0.1 94
2020-03-25 05:00:00 11.3 18 Este 23 Este -- 1004.8 -0.2 92
2020-03-25 04:00:00 11.3 10 Sudeste 15 Sudeste -- 1004.8 -0.4 90
2020-03-25 03:00:00 11 11 Sudeste 26 Sudeste -- 1004.9 -0.7 90
2020-03-25 02:00:00 11.6 21 Sudeste 32 Sudeste -- 1005 -0.8 89
2020-03-25 01:00:00 11.9 22 Sudeste 38 Sudeste -- 1005.2 -0.3 89
2020-03-25 00:00:00 12.2 27 Sudeste 34 Este -- 1005.6 0.2 90
2020-03-24 23:00:00 12.1 23 Este 31 Este -- 1005.8 0.3 92
2020-03-24 22:00:00 12 23 Sudeste 31 Sudeste -- 1005.5 0.2 91
2020-03-24 21:00:00 12 23 Sudeste 30 Sudeste -- 1005.4 -0.1 93
2020-03-24 20:00:00 12.3 27 Este 32 Este -- 1005.5 0.2 91
2020-03-24 19:00:00 12.6 28 Sudeste 40 Sudeste -- 1005.3 -0.1 87
2020-03-24 18:00:00 13.4 28 Este 39 Este -- 1005.5 -0.4 84
2020-03-24 17:00:00 14.1 31 Este 42 Este -- 1005.3 -1.2 80
2020-03-24 16:00:00 13.7 32 Este 41 Este -- 1005.4 -1.3 80
2020-03-24 15:00:00 14.2 30 Este 40 Este -- 1005.9 -1.1 82
2020-03-24 14:00:00 14.3 27 Este 37 Este -- 1006.5 -0.4 81
2020-03-24 13:00:00 13.6 27 Este 37 Este -- 1006.7 -0.3 81
2020-03-24 12:00:00 13.8 32 Este 39 Este -- 1007 0.4 81
2020-03-24 11:00:00 12.5 33 Este 40 Sudeste -- 1006.9 0.7 83
2020-03-24 10:00:00 12 30 Sudeste 37 Sudeste -- 1007 1 83
2020-03-24 09:00:00 11.9 32 Sudeste 41 Sudeste -- 1006.6 0.8 86
2020-03-24 08:00:00 11.5 31 Sudeste 42 Sudeste -- 1006.2 0.7 89
2020-03-24 07:00:00 11.8 29 Sudeste 39 Sudeste -- 1006 0.3 87
2020-03-24 06:00:00 11.8 29 Sudeste 53 Sudeste -- 1005.8 -0.3 88
2020-03-24 05:00:00 12.1 44 Este 53 Sudeste -- 1005.5 -0.9 91
2020-03-24 04:00:00 12 40 Este 51 Este -- 1005.7 -1.1 90
2020-03-24 03:00:00 12.1 37 Este 50 Este -- 1006.1 -0.9 89
2020-03-24 02:00:00 12.1 37 Este 49 Este -- 1006.4 -0.7 88
2020-03-24 01:00:00 12 34 Este 46 Este -- 1006.8 -0.5 86
2020-03-24 00:00:00 11.8 32 Este 45 Este -- 1007 -0.7 86
2020-03-23 23:00:00 11.8 32 Este 47 Nordeste -- 1007.1 -0.6 90
2020-03-23 22:00:00 11 37 Nordeste 48 Nordeste -- 1007.3 -0.2 86
2020-03-23 21:00:00 10.7 11 Nordeste 29 Nordeste -- 1007.7 0.1 81
2020-03-23 20:00:00 9.9 23 Nordeste 33 Nordeste -- 1007.7 0.2 80
2020-03-23 19:00:00 10 16 Nordeste 32 Nordeste -- 1007.5 -0.4 80
2020-03-23 18:00:00 9.9 18 Este 28 Nordeste -- 1007.6 -0.7 85
2020-03-23 17:00:00 10.2 14 Este 31 Nordeste -- 1007.5 -1.2 80
2020-03-23 16:00:00 9.9 21 Nordeste 29 Este -- 1007.9 -0.9 79
2020-03-23 15:00:00 10 17 Nordeste 30 Nordeste -- 1008.3 -0.5 78
2020-03-23 14:00:00 10 18 Nordeste 32 Nordeste -- 1008.7 0.1 81
2020-03-23 13:00:00 9.9 22 Nordeste 34 Nordeste -- 1008.8 0.3 84
2020-03-23 12:00:00 10.5 19 Nordeste 41 Nordeste -- 1008.8 0.7 80
2020-03-23 11:00:00 10.6 29 Nordeste 43 Nordeste -- 1008.6 1.1 81
2020-03-23 10:00:00 10.8 23 Nordeste 41 Nordeste -- 1008.5 1.6 82
2020-03-23 09:00:00 11.1 27 Nordeste 42 Nordeste -- 1008.1 1.2 82
2020-03-23 08:00:00 10.9 33 Nordeste 41 Nordeste -- 1007.5 1 83
2020-03-23 07:00:00 10.9 27 Nordeste 40 Nordeste -- 1006.9 0.7 84
2020-03-23 06:00:00 10.9 25 Nordeste 44 Este -- 1006.9 0.8 87
2020-03-23 05:00:00 11.1 30 Nordeste 44 Nordeste -- 1006.5 0.1 89
2020-03-23 04:00:00 11 33 Este 45 Nordeste -- 1006.2 -0.2 89
2020-03-23 03:00:00 10.9 38 Este 45 Este -- 1006.1 -0.6 91
2020-03-23 02:00:00 10.9 33 Nordeste 51 Nordeste -- 1006.4 -0.3 92
2020-03-23 01:00:00 11.4 40 Nordeste 50 Nordeste -- 1006.4 0.1 91
2020-03-23 00:00:00 11.7 36 Nordeste 46 Nordeste -- 1006.7 0.9 86
2020-03-22 23:00:00 11.7 38 Nordeste 47 Nordeste -- 1006.7 1.6 89
2020-03-22 22:00:00 11.7 36 Nordeste 44 Este -- 1006.3 1.6 90
2020-03-22 21:00:00 11.8 37 Este 46 Este -- 1005.8 1.4 91
2020-03-22 20:00:00 11.8 38 Nordeste 46 Nordeste -- 1005.1 0.9 91
2020-03-22 19:00:00 12.1 37 Este 44 Este -- 1004.7 0.7 91
2020-03-22 18:00:00 12.4 33 Nordeste 43 Nordeste -- 1004.4 0.3 91
2020-03-22 17:00:00 12.9 28 Nordeste 35 Nordeste -- 1004.2 0 90
2020-03-22 16:00:00 13.9 20 Este 27 Este -- 1004 -0.3 84
2020-03-22 15:00:00 14.3 20 Este 26 Nordeste -- 1004.1 -0.1 83
2020-03-22 14:00:00 14.6 18 Este 24 Este -- 1004.2 0.1 82
2020-03-22 13:00:00 14.2 9 Nordeste 17 Nordeste -- 1004.3 0.6 82
2020-03-22 12:00:00 13.8 9 Nordeste 14 Nordeste -- 1004.2 0.9 81
2020-03-22 11:00:00 13.3 10 Este 13 Este -- 1004.1 1.3 83
2020-03-22 10:00:00 12.3 11 Este 14 Nordeste -- 1003.7 1.4 87
2020-03-22 09:00:00 11.8 2 Oeste 10 Oeste -- 1003.3 1.3 88
2020-03-22 08:00:00 11.8 6 Oeste 9 Noroeste -- 1002.8 1.1 88
2020-03-22 07:00:00 11.9 3 Oeste 10 Noroeste -- 1002.3 0.7 85
2020-03-22 06:00:00 11.9 4 Noroeste 13 Noroeste -- 1002 0.2 86
2020-03-22 05:00:00 11.8 6 Noroeste 17 Noroeste -- 1001.7 0 87
2020-03-22 04:00:00 11.8 15 Oeste 19 Noroeste -- 1001.6 -0.2 83
2020-03-22 03:00:00 11.9 9 Noroeste 22 Noroeste -- 1001.8 0.3 85
2020-03-22 02:00:00 11.9 10 Noroeste 18 Noroeste -- 1001.7 0.4 86
2020-03-22 01:00:00 11.7 12 Oeste 22 Oeste -- 1001.8 0.4 86
2020-03-22 00:00:00 11.8 15 Oeste 22 Oeste -- 1001.5 0.3 85
2020-03-21 23:00:00 11.6 14 Oeste 17 Noroeste -- 1001.3 0.8 84
2020-03-21 22:00:00 11.6 13 Oeste 19 Noroeste -- 1001.4 1.4 84
2020-03-21 21:00:00 11.6 9 Oeste 17 Oeste -- 1001.2 1.7 85
2020-03-21 20:00:00 11.7 8 Oeste 13 Oeste -- 1000.5 1.4 87
2020-03-21 19:00:00 11.9 6 Noroeste 15 Noroeste -- 1000 0.9 86
2020-03-21 18:00:00 12.5 6 Noroeste 15 Noroeste -- 999.5 0 85
2020-03-21 17:00:00 13.1 8 Noroeste 14 Noroeste -- 999.1 -0.8 82
2020-03-21 16:00:00 14.6 5 Noroeste 14 Norte -- 999.1 -0.9 78
2020-03-21 15:00:00 13 8 Nordeste 16 Este -- 999.5 -0.7 83
2020-03-21 14:00:00 12.6 9 Nordeste 13 Este -- 999.9 -0.2 85
2020-03-21 13:00:00 12.3 6 Nordeste 14 Nordeste -- 1000 -0.2 86
2020-03-21 12:00:00 12 8 Este 16 Este -- 1000.2 0 88
2020-03-21 11:00:00 11.9 12 Este 22 Este -- 1000.1 0.3 91
2020-03-21 10:00:00 11.5 12 Nordeste 19 Este -- 1000.2 0.7 91
2020-03-21 09:00:00 11.3 15 Este 26 Este -- 1000.2 0.7 91
2020-03-21 08:00:00 11.2 20 Este 32 Este -- 999.8 0.1 91
2020-03-21 07:00:00 11.3 20 Este 28 Este -- 999.5 -0.5 93
2020-03-21 06:00:00 11.3 21 Este 31 Este -- 999.5 -1.1 93
2020-03-21 05:00:00 11.2 21 Este 30 Sudeste -- 999.7 -1.1 94
2020-03-21 04:00:00 11.4 21 Este 28 Sudeste -- 1000 -1.6 96
2020-03-21 03:00:00 11.4 17 Sudeste 26 Sudeste -- 1000.6 -1.4 96
2020-03-21 02:00:00 11.6 17 Este 27 Este -- 1000.8 -1.3 96
2020-03-21 01:00:00 11.6 20 Sudeste 30 Este -- 1001.6 -0.4 95
2020-03-21 00:00:00 11.8 23 Este 29 Sudeste -- 1002 0.2 95
2020-03-20 23:00:00 11.6 26 Sudeste 33 Este -- 1002.1 0.4 95
2020-03-20 22:00:00 11.6 25 Este 30 Sudeste -- 1002 0.2 95
2020-03-20 21:00:00 11.6 26 Este 29 Sudeste -- 1001.8 0.6 94
2020-03-20 20:00:00 11.5 19 Este 31 Sudeste -- 1001.7 0.3 94
2020-03-20 19:00:00 11.8 24 Sudeste 32 Este -- 1001.8 0.2 91
2020-03-20 18:00:00 12.1 26 Este 31 Sudeste -- 1001.2 -0.8 90
2020-03-20 17:00:00 12.3 24 Este 29 Sudeste -- 1001.4 -0.9 90
2020-03-20 16:00:00 12.5 19 Este 23 Sudeste -- 1001.6 -1 90
2020-03-20 15:00:00 12.6 17 Este 21 Este -- 1002 -1 91
2020-03-20 14:00:00 12.7 14 Este 19 Este -- 1002.3 -0.8 91
2020-03-20 13:00:00 12.1 17 Este 21 Este -- 1002.6 -0.6 92
2020-03-20 12:00:00 12.1 8 Este 12 Este -- 1003 0 92
2020-03-20 11:00:00 11.4 8 Sudeste 23 Sudeste -- 1003.1 0.4 94
2020-03-20 10:00:00 11.3 13 Sudeste 22 Sudeste -- 1003.2 0.6 94
2020-03-20 09:00:00 11.1 19 Sudeste 31 Sudeste -- 1003 0.4 95
2020-03-20 08:00:00 11 25 Sudeste 36 Sudeste -- 1002.7 0 95
2020-03-20 07:00:00 10.9 30 Este 39 Este -- 1002.6 -0.5 95
2020-03-20 06:00:00 11.2 28 Este 36 Este -- 1002.6 -1 94
2020-03-20 05:00:00 11.2 24 Este 33 Sudeste -- 1002.7 -1.2 94
2020-03-20 04:00:00 11.3 26 Este 32 Sudeste -- 1003.1 -1.4 95
2020-03-20 03:00:00 11.2 22 Este 32 Este -- 1003.6 -1.2 96
2020-03-20 02:00:00 11.1 24 Este 33 Sudeste -- 1003.9 -1.3 96
2020-03-20 01:00:00 11.1 26 Este 33 Este -- 1004.5 -1 95
2020-03-20 00:00:00 11.1 18 Este 33 Este -- 1004.8 -0.5 96
2020-03-19 23:00:00 11.2 19 Este 25 Este -- 1005.2 -0.3 96
2020-03-19 22:00:00 11.1 16 Este 34 Este -- 1005.5 0.3 96
2020-03-19 21:00:00 11.3 26 Este 34 Sudeste -- 1005.3 -0.1 95
2020-03-19 20:00:00 11.4 22 Este 32 Este -- 1005.5 -0.2 92
2020-03-19 19:00:00 11.3 25 Este 33 Sudeste -- 1005.2 -0.7 92
2020-03-19 18:00:00 11.5 22 Este 32 Este -- 1005.4 -0.9 91
2020-03-19 17:00:00 11.7 15 Este 26 Este -- 1005.7 -1.4 90
2020-03-19 16:00:00 12.2 16 Este 27 Este -- 1005.9 -1.7 90
2020-03-19 15:00:00 12.4 19 Este 26 Este -- 1006.3 -1.9 90
2020-03-19 14:00:00 12.1 16 Este 26 Este -- 1007.1 -1.4 91
2020-03-19 13:00:00 11.7 20 Este 27 Sudeste -- 1007.6 -0.9 92
2020-03-19 12:00:00 11.4 23 Sudeste 32 Sudeste -- 1008.2 -0.4 93
2020-03-19 11:00:00 11.2 19 Este 30 Este -- 1008.5 -0.3 93
2020-03-19 10:00:00 11 20 Sudeste 32 Este -- 1008.5 -0.4 94
2020-03-19 09:00:00 10.9 20 Este 32 Este -- 1008.6 -0.6 94
2020-03-19 08:00:00 10.9 18 Este 29 Este -- 1008.8 -0.6 93
2020-03-19 07:00:00 11 19 Este 35 Este -- 1008.9 -0.9 92
2020-03-19 06:00:00 11.1 21 Este 30 Este -- 1009.2 -1.4 92
2020-03-19 05:00:00 11.3 20 Este 28 Este -- 1009.4 -1.8 91
2020-03-19 04:00:00 11.2 19 Este 32 Sudeste -- 1009.8 -1.6 91
2020-03-19 03:00:00 11.2 21 Este 32 Este -- 1010.6 -1.4 91
2020-03-19 02:00:00 11.3 19 Este 32 Este -- 1011.2 -0.9 90
2020-03-19 01:00:00 11.3 23 Este 36 Este -- 1011.4 -0.9 90
2020-03-19 00:00:00 11.4 20 Este 32 Sudeste -- 1012 -0.6 90
2020-03-18 23:00:00 11.4 22 Sudeste 37 Sudeste -- 1012.1 -0.2 90
2020-03-18 22:00:00 11.6 27 Sudeste 36 Sudeste -- 1012.3 0.2 88
2020-03-18 21:00:00 11.7 27 Este 39 Este -- 1012.6 0.6 88
2020-03-18 20:00:00 11.7 26 Este 37 Este -- 1012.3 -0.2 87
2020-03-18 19:00:00 11.7 32 Sudeste 44 Sudeste -- 1012.1 -0.8 87
2020-03-18 18:00:00 12.1 31 Sudeste 40 Sudeste -- 1012 -1.5 85
2020-03-18 17:00:00 12.4 27 Este 37 Este -- 1012.5 -1.6 84
2020-03-18 16:00:00 12.3 26 Este 36 Este -- 1012.9 -1.5 84
2020-03-18 15:00:00 12.9 25 Este 33 Este -- 1013.5 -1.3 84
2020-03-18 14:00:00 12.7 25 Este 36 Este -- 1014.1 -0.8 84
2020-03-18 13:00:00 12.9 27 Este 38 Sudeste -- 1014.4 -0.5 85
2020-03-18 12:00:00 12.7 27 Este 38 Este -- 1014.8 -0.3 83
2020-03-18 11:00:00 12.4 23 Este 31 Sudeste -- 1014.9 -0.3 85
2020-03-18 10:00:00 11.8 26 Sudeste 33 Sudeste -- 1014.9 -0.4 85
2020-03-18 09:00:00 11.7 22 Sudeste 32 Sudeste -- 1015.1 -0.2 85
2020-03-18 08:00:00 11.3 23 Sudeste 32 Sudeste -- 1015.2 -0.2 85
2020-03-18 07:00:00 11 22 Sudeste 28 Sudeste -- 1015.3 -0.2 87
2020-03-18 06:00:00 11.5 20 Sudeste 29 Sudeste -- 1015.3 -0.6 86
2020-03-18 05:00:00 11.6 21 Sudeste 27 Este -- 1015.4 -0.7 89
2020-03-18 04:00:00 11.8 21 Este 34 Este -- 1015.5 -1.3 90
2020-03-18 03:00:00 11.8 26 Este 40 Este -- 1015.9 -1.1 90
2020-03-18 02:00:00 11.9 27 Este 41 Este -- 1016.1 -1 90
2020-03-18 01:00:00 12 27 Este 44 Este -- 1016.8 0 88
2020-03-18 00:00:00 12 34 Este 47 Este -- 1017 0.5 86
2020-03-17 23:00:00 11.9 34 Este 54 Este -- 1017.1 1.1 87
2020-03-17 22:00:00 11.8 38 Este 56 Este -- 1016.8 0.5 87
2020-03-17 21:00:00 11.8 39 Este 58 Este -- 1016.5 0.2 86
2020-03-17 20:00:00 11.7 37 Este 52 Este -- 1016 -0.6 84
2020-03-17 19:00:00 11.8 38 Este 52 Este -- 1016.3 -0.4 82
2020-03-17 18:00:00 12.2 36 Este 51 Este -- 1016.3 -1 81
2020-03-17 17:00:00 12.5 34 Este 55 Este -- 1016.6 -0.9 79
2020-03-17 16:00:00 12.8 37 Este 51 Este -- 1016.7 -1.1 72
2020-03-17 15:00:00 12 35 Este 48 Este -- 1017.3 -0.7 76
2020-03-17 14:00:00 12.1 36 Este 49 Este -- 1017.5 -0.4 75
2020-03-17 13:00:00 11.9 40 Este 55 Este -- 1017.8 0.5 77
2020-03-17 12:00:00 11.6 42 Este 55 Este -- 1018 0.6 78
2020-03-17 11:00:00 11.4 33 Este 55 Este -- 1017.9 1.4 80
2020-03-17 10:00:00 11.2 42 Este 58 Este -- 1017.3 0.8 76
2020-03-17 09:00:00 11.2 37 Este 57 Este -- 1017.4 1.3 75
2020-03-17 08:00:00 10.9 38 Este 56 Este 0 1016.5 0.8 71
2020-03-17 07:00:00 10.8 42 Este 57 Nordeste 0 1016.5 0.6 77
2020-03-17 06:00:00 10.7 44 Este 54 Este 0 1016.1 -0.4 75
2020-03-17 05:00:00 10.5 44 Este 62 Este 0 1015.7 -0.8 69
2020-03-17 04:00:00 10.5 46 Este 62 Este 0 1015.9 -0.7 67
2020-03-17 03:00:00 10.6 47 Este 61 Este 0 1016.5 -0.2 70
2020-03-17 02:00:00 10.5 45 Este 58 Este 0 1016.5 -0.3 66
2020-03-17 01:00:00 10.6 45 Este 59 Nordeste 0 1016.6 0.2 71
2020-03-17 00:00:00 10.7 44 Nordeste 57 Nordeste 0 1016.7 0.7 73
2020-03-16 23:00:00 10.7 33 Nordeste 52 Nordeste 0 1016.8 1.3 68
2020-03-16 22:00:00 10.9 40 Nordeste 53 Nordeste 0 1016.4 1.4 68
2020-03-16 21:00:00 10.8 33 Nordeste 50 Nordeste 0 1016 1.4 66
2020-03-16 20:00:00 10.8 29 Nordeste 48 Nordeste 0 1015.5 1.3 68
2020-03-16 19:00:00 10.8 26 Nordeste 45 Nordeste 0 1015 1 68
2020-03-16 18:00:00 11 26 Nordeste 46 Nordeste 0 1014.6 0.5 67
2020-03-16 17:00:00 11.5 25 Nordeste 45 Norte 0 1014.2 0 68
2020-03-16 16:00:00 11.4 28 Nordeste 50 Este 0 1014 0.2 67
2020-03-16 15:00:00 10.5 17 Norte 47 Nordeste 0 1014.1 0.5 78
2020-03-16 14:00:00 10.1 32 Nordeste 53 Nordeste 0 1014.2 1 69
2020-03-16 13:00:00 11.1 28 Nordeste 49 Nordeste 0 1013.8 1.3 68
2020-03-16 12:00:00 10.4 35 Norte 49 Nordeste 0 1013.6 2.1 71
2020-03-16 11:00:00 10.2 32 Nordeste 62 Nordeste 0 1013.2 2.6 69
2020-03-16 10:00:00 10.3 32 Nordeste 51 Nordeste 0 1012.5 2.3 69
2020-03-16 09:00:00 10.3 28 Nordeste 52 Nordeste 0 1011.5 2.1 64
2020-03-16 08:00:00 10 37 Norte 60 Norte 0 1010.6 1.7 74
2020-03-16 07:00:00 9.1 24 Nordeste 57 Norte 0 1010.2 1.6 79
2020-03-16 06:00:00 9.9 33 Norte 53 Norte 0 1009.4 1 73
2020-03-16 05:00:00 9.7 29 Norte 54 Norte 0 1008.9 1.1 75
2020-03-16 04:00:00 9.5 27 Norte 50 Norte 0 1008.6 1.1 74
2020-03-16 03:00:00 9.4 25 Norte 69 Norte 0 1008.4 1.1 74
2020-03-16 02:00:00 9.5 35 Norte 47 Norte 0 1007.8 1.1 69
2020-03-16 01:00:00 9.8 28 Norte 48 Norte 0 1007.5 1.1 68
2020-03-16 00:00:00 10 30 Norte 45 Nordeste 0 1007.3 1.4 67
2020-03-15 23:00:00 9.6 22 Norte 46 Norte 0 1006.7 1.5 70
2020-03-15 22:00:00 9.5 23 Norte 44 Noroeste 0 1006.4 1.6 70
2020-03-15 21:00:00 9.5 24 Noroeste 44 Norte 0 1005.9 1.9 63
2020-03-15 20:00:00 9.6 23 Noroeste 39 Noroeste 0 1005.2 1.3 73
2020-03-15 19:00:00 8.4 23 Noroeste 42 Oeste 0 1004.8 1.2 74
2020-03-15 18:00:00 10.4 37 Oeste 54 Oeste 0 1004 0.2 64
2020-03-15 17:00:00 8.8 32 Oeste 46 Oeste 0 1003.9 -0.4 77
2020-03-15 16:00:00 8.7 32 Oeste 46 Oeste 0 1003.6 0 79
2020-03-15 15:00:00 7.5 36 Oeste 55 Oeste 0 1003.8 0.5 87
2020-03-15 14:00:00 7.6 26 Oeste 62 Noroeste 0 1004.3 1.4 86
2020-03-15 13:00:00 8.6 29 Noroeste 51 Noroeste 0 1003.6 2.3 90
2020-03-15 12:00:00 9.3 32 Noroeste 41 Noroeste 0 1003.3 1.3 91
2020-03-15 11:00:00 9.6 24 Noroeste 69 Noroeste 0 1002.9 0.8 89
2020-03-15 10:00:00 12.6 39 Sudoeste 52 Sudoeste 0 1001.3 -1.3 68
2020-03-15 09:00:00 11.3 28 Sudoeste 59 Oeste 0 1002 -0.9 76
2020-03-15 08:00:00 11.1 41 Oeste 54 Sudoeste 0 1002.1 -1.3 78
2020-03-15 07:00:00 10.6 39 Oeste 49 Oeste 0 1002.6 -1.6 81
2020-03-15 06:00:00 10.6 40 Oeste 49 Oeste 0 1002.9 -1.7 83
2020-03-15 05:00:00 9.7 28 Oeste 34 Oeste 0 1003.4 -1.7 85
2020-03-15 04:00:00 9.5 21 Oeste 26 Oeste 0 1004.2 -2 87
2020-03-15 03:00:00 9.4 19 Oeste 22 Oeste 0 1004.6 -2.8 86
2020-03-15 02:00:00 10.1 12 Oeste 20 Oeste 0 1005.1 -3.1 82
2020-03-15 01:00:00 9.5 14 Sur 19 Sur 0 1006.2 -2.5 88
2020-03-15 00:00:00 10.5 8 Sur 8 Sur 0 1007.4 -1.8 83
2020-03-14 23:00:00 11.1 4 Sur 6 Sudoeste 0 1008.2 -1.2 82
2020-03-14 22:00:00 11.5 3 Sudeste 7 Nordeste 0 1008.7 -0.8 81
2020-03-14 21:00:00 11.7 4 Este 9 Nordeste 0 1009.2 -0.4 79
2020-03-14 20:00:00 11.5 3 Nordeste 12 Nordeste 0 1009.4 -0.6 77
2020-03-14 19:00:00 13 5 Norte 13 Norte 0 1009.5 -1 72
2020-03-14 18:00:00 13.7 8 Norte 17 Norte 0 1009.6 -1.3 72
2020-03-14 17:00:00 14.9 7 Noroeste 15 Norte 0 1010 -1.8 67
2020-03-14 16:00:00 15.4 5 Oeste 18 Norte 0 1010.5 -1.8 63
2020-03-14 15:00:00 15.7 5 Noroeste 16 Noroeste 0 1010.9 -1.9 63
2020-03-14 14:00:00 14.3 7 Noroeste 16 Noroeste 0 1011.8 -1.3 65
2020-03-14 13:00:00 13.3 11 Noroeste 18 Noroeste 0 1012.3 -0.9 63
2020-03-14 12:00:00 14.6 7 Oeste 13 Oeste 0 1012.8 -0.2 61
2020-03-14 11:00:00 13.8 11 Sudoeste 20 Oeste 0 1013.1 0.5 63
2020-03-14 10:00:00 12.8 16 Oeste 19 Oeste 0 1013.2 1 67
2020-03-14 09:00:00 11.9 15 Oeste 19 Oeste 0 1013 0.7 68
2020-03-14 08:00:00 11.8 8 Oeste 13 Oeste 0 1012.6 0.3 68
2020-03-14 07:00:00 11 9 Sudoeste 15 Sur 0 1012.2 -0.6 66
2020-03-14 06:00:00 10.4 12 Sur 15 Sur 0 1012.3 -1.2 68
2020-03-14 05:00:00 10.3 8 Sudoeste 20 Sur 0 1012.3 -1.6 69
2020-03-14 04:00:00 9.9 16 Sur 20 Sur 0 1012.8 -1.4 72
2020-03-14 03:00:00 9.3 12 Sur 16 Oeste 0 1013.5 -0.8 80
2020-03-14 02:00:00 9.9 10 Oeste 13 Oeste 0 1013.9 -0.4 79
2020-03-14 01:00:00 9.7 9 Oeste 14 Noroeste 0 1014.2 0.2 74
2020-03-14 00:00:00 10.2 5 Noroeste 14 Oeste 0 1014.3 0.7 73
2020-03-13 23:00:00 10.6 10 Oeste 16 Noroeste 0 1014.3 1 71
2020-03-13 22:00:00 11 4 Noroeste 19 Norte 0 1014 1.2 74
2020-03-13 21:00:00 10.9 6 Sudeste 15 Este 0 1013.6 0.8 70
2020-03-13 20:00:00 11.2 8 Nordeste 18 Nordeste 0 1013.3 0.6 74
2020-03-13 19:00:00 11.1 10 Nordeste 20 Nordeste 0 1012.8 -0.3 74
2020-03-13 18:00:00 11.5 15 Nordeste 25 Este 0 1012.8 -1.3 74
2020-03-13 17:00:00 12 18 Este 29 Este 0 1012.7 -1.8 73
2020-03-13 16:00:00 12.2 20 Este 30 Este 0 1013.1 -1.7 70
2020-03-13 15:00:00 11.7 24 Nordeste 34 Nordeste 0 1014.1 -0.7 68
2020-03-13 14:00:00 12.1 27 Este 38 Nordeste 0 1014.5 -0.3 71
2020-03-13 13:00:00 12 30 Este 38 Este 0 1014.8 0.2 71
2020-03-13 12:00:00 11.4 31 Este 42 Este 0 1014.8 0.8 69
2020-03-13 11:00:00 10.9 35 Nordeste 45 Nordeste 0 1014.8 1.1 72
2020-03-13 10:00:00 10.7 26 Nordeste 44 Nordeste 0 1014.6 0.9 73
2020-03-13 09:00:00 10.5 36 Nordeste 49 Este 0 1014 0.2 73
2020-03-13 08:00:00 10.5 36 Este 47 Este 0 1013.7 -0.2 74
2020-03-13 07:00:00 10.3 31 Este 45 Este 0 1013.7 -0.8 71
2020-03-13 06:00:00 10.3 33 Este 44 Nordeste 0 1013.8 -1.3 72
2020-03-13 05:00:00 10.3 35 Nordeste 46 Nordeste 0 1013.9 -1.5 73
2020-03-13 04:00:00 10.4 31 Nordeste 45 Nordeste 0 1014.5 -0.9 71
2020-03-13 03:00:00 10.5 23 Nordeste 44 Nordeste 0 1015.1 -0.6 70
2020-03-13 02:00:00 10.6 23 Nordeste 41 Nordeste 0 1015.4 -0.1 69
2020-03-13 01:00:00 10.7 27 Nordeste 39 Nordeste 0 1015.4 -0.1 70
2020-03-13 00:00:00 10.7 23 Nordeste 37 Nordeste 0 1015.7 0.3 68
2020-03-12 23:00:00 10.7 21 Nordeste 39 Nordeste 0 1015.5 0.3 67
2020-03-12 22:00:00 10.7 23 Nordeste 36 Norte 0 1015.5 0.7 64
2020-03-12 21:00:00 10.6 21 Nordeste 35 Nordeste 0 1015.4 1 62
2020-03-12 20:00:00 10.8 19 Nordeste 34 Nordeste 0 1015.2 1.1 69
2020-03-12 19:00:00 10.9 15 Nordeste 30 Nordeste 0 1014.8 0.8 68
2020-03-12 18:00:00 11.1 15 Nordeste 31 Norte 0 1014.4 0.3 67
2020-03-12 17:00:00 11.3 18 Nordeste 33 Nordeste 0 1014.1 -0.4 71
2020-03-12 16:00:00 11.5 13 Norte 30 Nordeste 0 1014 -0.6 71
2020-03-12 15:00:00 10.9 17 Norte 38 Norte 0 1014.1 -0.1 74
2020-03-12 14:00:00 10.2 23 Norte 39 Norte 0 1014.5 0.6 85
2020-03-12 13:00:00 10.8 15 Norte 30 Norte 0 1014.6 1.1 92
2020-03-12 12:00:00 11.3 15 Norte 27 Norte 0 1014.2 1.2 90
2020-03-12 11:00:00 11.8 15 Noroeste 31 Noroeste 0 1013.9 1.5 86
2020-03-12 10:00:00 12.5 5 Noroeste 16 Noroeste 0 1013.5 1.5 83
2020-03-12 09:00:00 12 9 Oeste 11 Oeste 0 1013 1.3 89
2020-03-12 08:00:00 12.5 5 Noroeste 18 Norte 0 1012.4 0.9 85
2020-03-12 07:00:00 12.4 6 Noroeste 18 Noroeste 0 1012 0.1 80
2020-03-12 06:00:00 12.2 10 Oeste 18 Oeste 0 1011.7 -0.4 85
2020-03-12 05:00:00 12 14 Oeste 21 Sudoeste 0 1011.5 -0.6 87
2020-03-12 04:00:00 12.2 17 Oeste 27 Oeste 0 1011.9 -0.1 90
2020-03-12 03:00:00 12.8 19 Oeste 24 Sudoeste 0 1012.1 0 83
2020-03-12 02:00:00 12.6 20 Oeste 30 Oeste 0 1012.1 0.1 81
2020-03-12 01:00:00 12.7 24 Oeste 28 Oeste 0 1012 0 78
2020-03-12 00:00:00 12.9 20 Oeste 28 Oeste 0 1012.1 0.2 87
2020-03-11 23:00:00 13.4 18 Oeste 28 Sudoeste 0 1012 0.1 78
2020-03-11 22:00:00 13.6 19 Oeste 26 Oeste 0 1012 0.3 78
2020-03-11 21:00:00 13.7 21 Oeste 26 Oeste 0 1011.9 0.6 84
2020-03-11 20:00:00 14 20 Oeste 31 Oeste 0 1011.9 1 83
2020-03-11 19:00:00 14.1 25 Oeste 35 Oeste 0 1011.7 1.1 84
2020-03-11 18:00:00 14.1 30 Oeste 48 Oeste 0 1011.3 0 83
2020-03-11 17:00:00 13.8 44 Oeste 60 Oeste 0 1010.9 -0.7 86
2020-03-11 16:00:00 13.6 52 Oeste 58 Oeste 0 1010.6 -1.7 86
2020-03-11 15:00:00 15.6 36 Oeste 45 Oeste 0 1011.3 -1.6 77
2020-03-11 14:00:00 13.7 35 Oeste 40 Noroeste 0 1011.6 -1.6 85
2020-03-11 13:00:00 15.6 29 Oeste 31 Oeste 0 1012.3 -0.6 74
2020-03-11 12:00:00 15 18 Oeste 24 Oeste 0 1012.9 0 77
2020-03-11 11:00:00 15 19 Oeste 27 Sudoeste 0 1013.2 0.3 75
2020-03-11 10:00:00 13.4 23 Sudoeste 33 Sudoeste 0 1012.9 -0.2 78
2020-03-11 09:00:00 12.8 20 Sudoeste 29 Sudoeste 0 1012.9 -0.2 80
2020-03-11 08:00:00 12.5 23 Sudoeste 30 Sudoeste 0 1012.9 -0.2 82
2020-03-11 07:00:00 12.9 21 Sudoeste 32 Sudoeste 0 1013.1 -0.3 82
2020-03-11 06:00:00 13 23 Oeste 37 Sudoeste 0 1013.1 -0.7 83
2020-03-11 05:00:00 13.2 30 Oeste 39 Sudoeste 0 1013.1 -1.1 82
2020-03-11 04:00:00 13.3 30 Oeste 38 Sudoeste 0 1013.4 -1 83
2020-03-11 03:00:00 13.5 32 Sudoeste 38 Sudoeste 0 1013.8 -0.5 82
2020-03-11 02:00:00 13.5 27 Oeste 32 Oeste 0 1014.2 -0.3 84
2020-03-11 01:00:00 13.5 28 Oeste 34 Oeste 0 1014.4 0 84
2020-03-11 00:00:00 13.6 34 Oeste 38 Oeste 0 1014.3 -0.4 83
2020-03-10 23:00:00 13.8 26 Oeste 39 Sudoeste 0 1014.5 0.3 80
2020-03-10 22:00:00 14.1 29 Sudoeste 35 Oeste 0 1014.4 0.5 79
2020-03-10 21:00:00 13.8 27 Oeste 49 Oeste 0 1014.7 1.1 86
2020-03-10 20:00:00 13.7 33 Oeste 45 Oeste 0 1014.2 0.5 88
2020-03-10 19:00:00 14.9 30 Oeste 40 Oeste 0 1013.9 0.4 77
2020-03-10 18:00:00 15.2 34 Oeste 48 Oeste 0 1013.6 -0.1 76
2020-03-10 17:00:00 15.5 36 Oeste 46 Oeste 0 1013.7 -0.4 75
2020-03-10 16:00:00 16.4 40 Oeste 51 Oeste 0 1013.5 -1.1 71
2020-03-10 15:00:00 15.8 44 Oeste 59 Oeste 0 1013.7 -1 71
2020-03-10 14:00:00 15.7 47 Oeste 56 Oeste 0 1014.1 -0.5 70
2020-03-10 13:00:00 15.2 44 Oeste 59 Oeste 0 1014.6 0 69
2020-03-10 12:00:00 13.8 49 Oeste 60 Oeste 0 1014.7 0.6 74
2020-03-10 11:00:00 12.6 48 Oeste 59 Oeste 0 1014.6 1.2 78
2020-03-10 10:00:00 12.1 45 Oeste 55 Sudoeste 0 1014.6 1.3 79
2020-03-10 09:00:00 11.1 47 Oeste 62 Oeste 0 1014.1 0.7 81
2020-03-10 08:00:00 10.8 49 Oeste 63 Oeste 0 1013.4 -0.2 82
2020-03-10 07:00:00 10.8 51 Oeste 64 Oeste 0 1013.3 -1.2 83
2020-03-10 06:00:00 11 53 Oeste 65 Oeste 0 1013.4 -1.7 80
2020-03-10 05:00:00 11.1 51 Oeste 65 Oeste 0 1013.6 -1.6 81
2020-03-10 04:00:00 11.1 48 Oeste 57 Oeste 0 1014.5 -1.3 80
2020-03-10 03:00:00 11 46 Oeste 54 Oeste 0 1015.1 -1.1 82
2020-03-10 02:00:00 11.4 48 Oeste 59 Oeste 0 1015.2 -1.4 84
2020-03-10 01:00:00 11.5 41 Oeste 54 Oeste 0 1015.8 -1.1 82
2020-03-10 00:00:00 11.4 35 Oeste 44 Oeste 0 1016.2 -0.7 84
2020-03-09 23:00:00 11.7 31 Oeste 39 Oeste 0 1016.6 -0.2 84
2020-03-09 22:00:00 11.9 33 Oeste 37 Oeste 0 1016.9 0.3 82
2020-03-09 21:00:00 11.9 30 Oeste 39 Oeste 0 1016.9 0.4 81
2020-03-09 20:00:00 12.1 34 Oeste 44 Oeste 0 1016.8 0 78
2020-03-09 19:00:00 12.4 41 Oeste 47 Oeste 0 1016.6 -0.2 80
2020-03-09 18:00:00 13.3 40 Oeste 48 Oeste 0 1016.5 -1.1 72
2020-03-09 17:00:00 13.5 46 Oeste 54 Oeste 0 1016.8 -1.7 68
2020-03-09 16:00:00 14.4 41 Oeste 51 Oeste 0 1016.8 -2.5 66
2020-03-09 15:00:00 14.6 39 Oeste 46 Oeste 0 1017.6 -2.1 64
2020-03-09 14:00:00 14.3 34 Oeste 41 Oeste 0 1018.5 -0.5 63
2020-03-09 13:00:00 13.4 34 Oeste 42 Oeste 0 1019.3 0.9 71
2020-03-09 12:00:00 13 28 Oeste 38 Oeste 0 1019.7 1.5 74
2020-03-09 11:00:00 11.6 32 Oeste 36 Sudoeste 0 1019 1.5 79
2020-03-09 10:00:00 11.1 33 Oeste 40 Oeste 0 1018.4 0.8 80
2020-03-09 09:00:00 10.7 33 Oeste 40 Oeste 0 1018.2 0.8 81
2020-03-09 08:00:00 10.5 24 Oeste 30 Oeste 0 1017.5 0.7 78
2020-03-09 07:00:00 10.6 25 Oeste 33 Oeste 0 1017.6 0.6 79
2020-03-09 06:00:00 10.7 24 Oeste 31 Oeste 0 1017.4 -0.1 80
2020-03-09 05:00:00 10.9 23 Oeste 47 Oeste 0 1016.8 0 78
2020-03-09 04:00:00 11.6 38 Oeste 49 Oeste 0 1017 0.3 74
2020-03-09 03:00:00 11.6 41 Oeste 48 Oeste 0 1017.5 0.9 72
2020-03-09 02:00:00 11.7 41 Oeste 52 Oeste 0 1016.8 0.2 72
2020-03-09 01:00:00 11.9 46 Oeste 53 Oeste 0 1016.7 1.1 73
2020-03-09 00:00:00 11.9 45 Oeste 56 Oeste 0 1016.6 1.8 75
2020-03-08 23:00:00 12.2 51 Oeste 60 Oeste 0 1016.6 2.4 74
2020-03-08 22:00:00 12.2 48 Oeste 63 Oeste 0 1015.6 2.4 77
2020-03-08 21:00:00 12.1 60 Oeste 77 Oeste 0 1014.8 1.8 72
2020-03-08 20:00:00 12.4 59 Oeste 83 Oeste 0 1014.2 1.7 77
2020-03-08 19:00:00 12.7 59 Oeste 76 Oeste 0 1013.2 1.3 76
2020-03-08 18:00:00 13 58 Oeste 77 Oeste 0 1013 1.2 70
2020-03-08 17:00:00 13.8 55 Oeste 72 Oeste 0 1012.5 1 65
2020-03-08 16:00:00 13.5 59 Oeste 68 Oeste 0 1011.9 -0.1 72
2020-03-08 15:00:00 13.5 59 Oeste 76 Oeste 0 1011.8 0.2 72
2020-03-08 14:00:00 13.4 69 Oeste 78 Oeste 0 1011.5 -0.1 78
2020-03-08 13:00:00 14.2 48 Oeste 63 Oeste 0 1012 1.2 73
2020-03-08 12:00:00 13.1 56 Oeste 64 Oeste 0 1011.6 1.4 82
2020-03-08 11:00:00 11.7 53 Oeste 67 Oeste 0 1011.6 2.4 92
2020-03-08 10:00:00 12.2 53 Oeste 71 Oeste 0 1010.8 1.3 84
2020-03-08 09:00:00 12 62 Oeste 89 Sudoeste 0 1010.2 0.5 81
2020-03-08 08:00:00 12 64 Sudoeste 85 Oeste 0 1009.2 -0.7 78
2020-03-08 07:00:00 11.6 58 Oeste 79 Oeste 0 1009.5 -1 79
2020-03-08 06:00:00 11.7 54 Oeste 71 Oeste 0 1009.7 -1.6 75
2020-03-08 05:00:00 11.5 53 Oeste 68 Oeste 0 1009.9 -1.9 72
2020-03-08 04:00:00 12 48 Oeste 64 Oeste 0 1010.5 -1.7 66
2020-03-08 03:00:00 11.6 50 Oeste 71 Sudoeste 0 1011.3 -2 65
2020-03-08 02:00:00 11.2 51 Oeste 61 Sudoeste 0 1011.8 -2 66
2020-03-08 01:00:00 11 41 Sudoeste 60 Oeste 0 1012.2 -2.2 65
2020-03-08 00:00:00 11 45 Oeste 59 Oeste 0 1013.3 -1.3 68
2020-03-07 23:00:00 11.2 37 Oeste 50 Oeste 0 1013.8 -0.9 68
2020-03-07 22:00:00 11.3 31 Oeste 36 Oeste 0 1014.4 -0.2 73
2020-03-07 21:00:00 11.9 19 Sudoeste 32 Oeste 0 1014.6 0.4 71
2020-03-07 20:00:00 12.4 33 Oeste 41 Oeste 0 1014.7 0.7 74
2020-03-07 19:00:00 12.7 28 Oeste 43 Oeste 0 1014.6 -0.1 75
2020-03-07 18:00:00 13 38 Oeste 52 Oeste 0 1014.2 -1.3 71
2020-03-07 17:00:00 13.6 46 Oeste 54 Oeste 0 1014 -2.5 72
2020-03-07 16:00:00 13.5 36 Oeste 42 Oeste 0 1014.7 -2.5 58
2020-03-07 15:00:00 13.7 30 Oeste 39 Oeste 0 1015.5 -1.9 62
2020-03-07 14:00:00 14.5 23 Oeste 33 Oeste 0 1016.5 -1.1 59
2020-03-07 13:00:00 13.5 26 Oeste 32 Sudoeste 0 1017.2 -0.4 60
2020-03-07 12:00:00 14.1 18 Oeste 26 Oeste 0 1017.4 0.1 74
2020-03-07 11:00:00 12.5 22 Oeste 26 Oeste 0 1017.6 0.9 78
2020-03-07 10:00:00 12 19 Oeste 26 Oeste 0 1017.6 1.1 81
2020-03-07 09:00:00 11.6 23 Oeste 33 Oeste 0 1017.3 0.7 85
2020-03-07 08:00:00 11.2 23 Oeste 30 Sudoeste 0 1016.7 0.3 82
2020-03-07 07:00:00 11.2 24 Oeste 31 Oeste 0 1016.5 0.1 84
2020-03-07 06:00:00 11.2 17 Oeste 35 Oeste 0 1016.6 -0.3 85
2020-03-07 05:00:00 11.5 29 Oeste 37 Oeste 0 1016.4 -0.4 84
2020-03-07 04:00:00 11.6 33 Oeste 42 Oeste 0 1016.4 -0.3 82
2020-03-07 03:00:00 11.8 37 Oeste 42 Oeste 0 1016.9 0.1 82
2020-03-07 02:00:00 11.9 36 Noroeste 45 Noroeste 0 1016.8 0.1 83
2020-03-07 01:00:00 11.8 35 Noroeste 54 Noroeste 0 1016.7 0.6 85
2020-03-07 00:00:00 12 40 Oeste 46 Oeste 0 1016.8 0.6 87
2020-03-06 23:00:00 11.6 33 Oeste 48 Oeste 0 1016.7 1.2 87
2020-03-06 22:00:00 11.4 40 Oeste 46 Oeste 0 1016.1 1.1 85
2020-03-06 21:00:00 11 35 Oeste 52 Oeste 0 1016.2 1.6 84
2020-03-06 20:00:00 10.8 44 Oeste 53 Oeste 0 1015.5 1.5 79
2020-03-06 19:00:00 11.3 42 Oeste 51 Oeste 0 1015 1.5 71
2020-03-06 18:00:00 11.2 37 Oeste 61 Noroeste 0 1014.6 1.2 74
2020-03-06 17:00:00 11.2 54 Noroeste 66 Noroeste 0 1014 0.9 62
2020-03-06 16:00:00 11.1 52 Oeste 63 Noroeste 0 1013.5 0.4 65
2020-03-06 15:00:00 10.7 54 Oeste 80 Noroeste 0 1013.4 0.6 64
2020-03-06 14:00:00 11.3 54 Oeste 66 Noroeste 0 1013.1 1.8 64
2020-03-06 13:00:00 11.1 50 Noroeste 68 Noroeste 0 1013.1 1.9 61
2020-03-06 12:00:00 10.6 47 Noroeste 69 Noroeste 0.2 1012.8 3.1 59
2020-03-06 11:00:00 10.2 51 Noroeste 70 Noroeste 0 1011.3 4.1 67
2020-03-06 10:00:00 9.5 26 Noroeste 95 Noroeste 0.6 1011.2 5.1 72
2020-03-06 09:00:00 8.6 38 Noroeste 81 Noroeste 0 1009.7 4.8 70
2020-03-06 08:00:00 9.8 69 Noroeste 85 Noroeste 0.8 1007.2 2.6 67
2020-03-06 07:00:00 10.1 67 Noroeste 93 Noroeste 11.8 1006.1 3.3 67
2020-03-06 06:00:00 7.7 77 Noroeste 113 Noroeste 5.8 1004.9 2 90
2020-03-06 05:00:00 9 72 Oeste 103 Oeste 4 1004.6 1.3 75
2020-03-06 04:00:00 11 83 Oeste 110 Oeste 3 1002.8 1.5 65
2020-03-06 03:00:00 10.8 80 Oeste 99 Oeste 0.6 1002.9 1.3 60
2020-03-06 02:00:00 10.8 75 Oeste 100 Oeste 1.2 1003.3 1.3 67
2020-03-06 01:00:00 9.3 88 Noroeste 114 Noroeste 6.8 1001.3 -0.2 78
2020-03-06 00:00:00 11.6 80 Oeste 96 Oeste 0.2 1001.6 -1.2 64
2020-03-05 23:00:00 10.4 75 Oeste 102 Oeste 1.4 1002 -1.5 80
2020-03-05 22:00:00 11 63 Oeste 83 Oeste 0.6 1001.5 -2.3 82
2020-03-05 21:00:00 11.1 43 Oeste 65 Oeste 0 1002.8 -1 80
2020-03-05 20:00:00 11.3 45 Oeste 66 Oeste 0 1003.5 -0.2 79
2020-03-05 19:00:00 10.7 44 Oeste 76 Oeste 0 1003.8 0.6 83
2020-03-05 18:00:00 11.8 49 Oeste 62 Oeste 0 1003.8 0.7 72
2020-03-05 17:00:00 11.7 50 Oeste 73 Oeste 0 1003.7 0.7 73
2020-03-05 16:00:00 11.5 56 Oeste 79 Oeste 0.4 1003.2 1.2 82
2020-03-05 15:00:00 12.1 57 Oeste 69 Noroeste 0 1003.1 2.5 73
2020-03-05 14:00:00 11.9 52 Oeste 66 Noroeste 0.4 1003 3.6 70
2020-03-05 13:00:00 11.8 56 Noroeste 74 Noroeste 0.4 1002 5.2 76
2020-03-05 12:00:00 11.7 57 Noroeste 73 Oeste 1.8 1000.6 5.3 72
2020-03-05 11:00:00 11.5 62 Noroeste 85 Oeste 0.4 999.4 5.8 81
2020-03-05 10:00:00 10.1 77 Oeste 98 Oeste 1.2 996.8 3.4 95
2020-03-05 09:00:00 11.4 66 Oeste 106 Oeste 0 995.3 1.5 83
2020-03-05 08:00:00 11.9 85 Oeste 111 Oeste 0 993.6 0.4 76
2020-03-05 07:00:00 12.1 85 Oeste 114 Oeste 0 993.4 -1.2 74
2020-03-05 06:00:00 12.4 77 Oeste 99 Oeste 0 993.8 0.4 79
2020-03-05 05:00:00 12.4 78 Oeste 96 Oeste 1.2 993.2 -0.9 85
2020-03-05 04:00:00 11.6 62 Oeste 96 Oeste 1.6 994.6 0 95
2020-03-05 03:00:00 11.7 83 Oeste 111 Oeste 3.4 993.4 -2.4 97
2020-03-05 02:00:00 14.2 55 Oeste 79 Sudoeste 1.6 994.1 -3.3 94
2020-03-05 01:00:00 15 63 Oeste 91 Oeste 0 994.6 -3.7 87
2020-03-05 00:00:00 15.7 65 Oeste 84 Oeste 0 995.8 -3.7 81
2020-03-04 23:00:00 16 60 Oeste 84 Sudoeste 0 997.4 -2.8 79
2020-03-04 22:00:00 16.2 68 Oeste 84 Sudoeste 0 998.3 -2.2 80
2020-03-04 21:00:00 16.1 59 Oeste 76 Oeste 0 999.5 -1.6 81
2020-03-04 20:00:00 16 66 Oeste 78 Oeste 0 1000.2 -1.9 81
2020-03-04 19:00:00 15.8 60 Oeste 76 Sudoeste 0 1000.5 -2.9 81
2020-03-04 18:00:00 16 58 Oeste 72 Oeste 0 1001.1 -2.8 79
2020-03-04 17:00:00 16.9 50 Oeste 66 Sudoeste 0 1002.1 -2.4 73
2020-03-04 16:00:00 16.7 41 Sudoeste 65 Oeste 0 1003.4 -1.9 75
2020-03-04 15:00:00 16.6 49 Oeste 70 Oeste 0 1003.9 -2 75
2020-03-04 14:00:00 17.5 50 Oeste 69 Sudoeste 0 1004.5 -1.3 72
2020-03-04 13:00:00 16.5 53 Oeste 63 Sudoeste 0 1005.3 -0.5 76
2020-03-04 12:00:00 15.7 51 Oeste 60 Oeste 0 1005.9 0.3 82
2020-03-04 11:00:00 15 49 Oeste 67 Oeste 0 1005.8 1 84
2020-03-04 10:00:00 14.8 46 Oeste 63 Sudoeste 0 1005.8 1.1 84
2020-03-04 09:00:00 13.8 54 Oeste 68 Oeste 0 1005.6 1.6 90
2020-03-04 08:00:00 13.6 58 Oeste 70 Oeste 0.2 1004.8 0.9 92
2020-03-04 07:00:00 13.8 61 Oeste 80 Oeste 0 1004.7 1.2 91
2020-03-04 06:00:00 14.1 68 Oeste 82 Oeste 0 1004 -0.3 89
2020-03-04 05:00:00 13.8 58 Oeste 76 Oeste 0 1003.9 -0.5 92
2020-03-04 04:00:00 13.8 62 Oeste 77 Oeste 0 1003.5 -1.4 94
2020-03-04 03:00:00 13.6 61 Oeste 71 Oeste 0 1004.3 -1.1 96
2020-03-04 02:00:00 13.5 57 Oeste 68 Oeste 0.4 1004.4 -0.9 96
2020-03-04 01:00:00 13.4 46 Oeste 54 Oeste 1.2 1004.9 -0.5 97
2020-03-04 00:00:00 13.3 40 Oeste 49 Oeste 1.4 1005.4 -0.2 96
2020-03-03 23:00:00 13.3 35 Oeste 59 Oeste 0.6 1005.3 0.1 94
2020-03-03 22:00:00 13.1 25 Oeste 44 Oeste 0 1005.4 0.5 92
2020-03-03 21:00:00 13.2 39 Oeste 49 Oeste 0 1005.6 0.8 89
2020-03-03 20:00:00 13.6 41 Oeste 53 Oeste 0 1005.2 1 84
2020-03-03 19:00:00 13.6 42 Oeste 50 Oeste 0 1004.9 1.5 82
2020-03-03 18:00:00 13.5 40 Oeste 58 Oeste 0 1004.8 1.4 81
2020-03-03 17:00:00 13.5 53 Oeste 67 Oeste 0 1004.2 0.9 77
2020-03-03 16:00:00 13.6 54 Oeste 67 Oeste 0 1003.4 1.2 77
2020-03-03 15:00:00 13.6 57 Oeste 71 Oeste 0 1003.4 3 80
2020-03-03 14:00:00 13.8 57 Oeste 77 Oeste 0 1003.3 5 78
2020-03-03 13:00:00 13.8 70 Oeste 97 Oeste 0 1002.2 6.3 81
2020-03-03 12:00:00 13.7 79 Oeste 108 Oeste 0 1000.4 6.9 82
2020-03-03 11:00:00 14.5 91 Oeste 125 Oeste 0 998.3 5.2 78
2020-03-03 10:00:00 14.6 102 Oeste 129 Oeste 0 995.9 2.2 80
2020-03-03 09:00:00 14.5 108 Oeste 129 Oeste 0 993.5 0.2 87
2020-03-03 08:00:00 13.7 93 Oeste 123 Oeste 0.2 993.1 -0.6 92
2020-03-03 07:00:00 12.5 83 Oeste 108 Oeste 1.2 993.7 -3.7 95
2020-03-03 06:00:00 11.7 86 Oeste 111 Sudoeste 0.4 993.3 -5.2 91
2020-03-03 05:00:00 11.3 86 Oeste 111 Oeste 0.4 993.7 -6.7 84
2020-03-03 04:00:00 10.4 51 Oeste 78 Sudoeste 0.2 997.4 -4.7 88
2020-03-03 03:00:00 10.1 51 Oeste 64 Oeste 0.2 998.5 -4.6 88
2020-03-03 02:00:00 9.5 51 Oeste 64 Oeste 0.6 1000.4 -2.6 88
2020-03-03 01:00:00 9.4 51 Oeste 64 Sudoeste 0.2 1002.1 -0.9 89
2020-03-03 00:00:00 10.1 53 Oeste 67 Oeste 0 1003.1 -0.9 83
2020-03-02 23:00:00 10.1 57 Oeste 68 Oeste 0 1003 -1 79
2020-03-02 22:00:00 9.8 51 Oeste 63 Sudoeste 0 1003 -0.8 77
2020-03-02 21:00:00 9.9 41 Oeste 52 Oeste 0 1004 0.9 77
2020-03-02 20:00:00 10.1 36 Oeste 61 Oeste 0 1004 1.2 75
2020-03-02 19:00:00 9.7 33 Oeste 65 Oeste 0.4 1003.8 2.2 83
2020-03-02 18:00:00 9.4 50 Oeste 78 Oeste 0.2 1003.1 1.8 77
2020-03-02 17:00:00 9.6 46 Oeste 105 Oeste 0.2 1002.8 1.4 81
2020-03-02 16:00:00 11.1 62 Oeste 71 Oeste 0 1001.6 1.7 65
2020-03-02 15:00:00 10.7 68 Oeste 86 Noroeste 0 1001.3 2.4 75
2020-03-02 14:00:00 10.5 62 Oeste 87 Noroeste 1.2 1001.4 4 67
2020-03-02 13:00:00 8 53 Noroeste 95 Noroeste 0.4 999.9 4 78
2020-03-02 12:00:00 10.2 71 Oeste 94 Noroeste 0.4 998.9 7.3 65
2020-03-02 11:00:00 10.3 73 Oeste 110 Noroeste 6.6 997.4 5 62
2020-03-02 10:00:00 9.9 75 Oeste 119 Noroeste 2.2 995.9 4.2 66
2020-03-02 09:00:00 8.6 87 Noroeste 118 Noroeste 10 991.6 1.6 84
2020-03-02 08:00:00 10.8 74 Oeste 86 Oeste 0.2 992.4 4.2 56
2020-03-02 07:00:00 10.8 71 Oeste 88 Noroeste 1 991.7 4.7 68
2020-03-02 06:00:00 10.6 63 Noroeste 99 Oeste 0.8 990 4.1 73
2020-03-02 05:00:00 10.4 79 Oeste 109 Noroeste 2.6 988.2 5.5 76
2020-03-02 04:00:00 10.6 89 Oeste 101 Oeste 0 987 5.3 75
2020-03-02 03:00:00 10.3 68 Noroeste 107 Oeste 6.6 985.9 2.4 82
2020-03-02 02:00:00 9.1 86 Oeste 102 Oeste 3.8 982.7 -2.2 94
2020-03-02 01:00:00 10.7 52 Oeste 70 Noroeste 3.4 981.7 -5.1 96
2020-03-02 00:00:00 11.1 30 Oeste 35 Oeste 3.8 983.5 -4.8 95